sensor_id;sensor_type;location;lat;lon;timestamp;P1;durP1;ratioP1;P2;durP2;ratioP2
18286;SDS011;9269;50.838;12.094;2022-11-22T00:01:29;10.13;;;8.77;;
18286;SDS011;9269;50.838;12.094;2022-11-22T00:03:58;10.97;;;9.20;;
18286;SDS011;9269;50.838;12.094;2022-11-22T00:06:26;14.77;;;10.00;;
18286;SDS011;9269;50.838;12.094;2022-11-22T00:08:55;11.30;;;8.67;;
18286;SDS011;9269;50.838;12.094;2022-11-22T00:11:24;11.23;;;9.57;;
18286;SDS011;9269;50.838;12.094;2022-11-22T00:13:54;13.43;;;9.73;;
18286;SDS011;9269;50.838;12.094;2022-11-22T00:16:22;12.30;;;9.60;;
18286;SDS011;9269;50.838;12.094;2022-11-22T00:18:51;13.33;;;9.97;;
18286;SDS011;9269;50.838;12.094;2022-11-22T00:21:20;10.87;;;9.20;;
18286;SDS011;9269;50.838;12.094;2022-11-22T00:23:48;16.93;;;12.00;;
18286;SDS011;9269;50.838;12.094;2022-11-22T00:26:17;16.70;;;13.40;;
18286;SDS011;9269;50.838;12.094;2022-11-22T00:28:46;17.03;;;13.23;;
18286;SDS011;9269;50.838;12.094;2022-11-22T00:31:16;12.87;;;10.00;;
18286;SDS011;9269;50.838;12.094;2022-11-22T00:33:44;16.57;;;13.00;;
18286;SDS011;9269;50.838;12.094;2022-11-22T00:36:13;15.93;;;12.33;;
18286;SDS011;9269;50.838;12.094;2022-11-22T00:38:43;12.83;;;10.97;;
18286;SDS011;9269;50.838;12.094;2022-11-22T00:41:11;15.57;;;10.93;;
18286;SDS011;9269;50.838;12.094;2022-11-22T00:43:40;13.40;;;10.97;;
18286;SDS011;9269;50.838;12.094;2022-11-22T00:46:09;14.73;;;11.30;;
18286;SDS011;9269;50.838;12.094;2022-11-22T00:48:38;14.77;;;10.93;;
18286;SDS011;9269;50.838;12.094;2022-11-22T00:51:07;16.23;;;11.50;;
18286;SDS011;9269;50.838;12.094;2022-11-22T00:53:36;14.90;;;12.10;;
18286;SDS011;9269;50.838;12.094;2022-11-22T00:56:04;15.30;;;12.30;;
18286;SDS011;9269;50.838;12.094;2022-11-22T00:58:33;16.17;;;12.43;;
18286;SDS011;9269;50.838;12.094;2022-11-22T01:01:04;13.57;;;10.30;;
18286;SDS011;9269;50.838;12.094;2022-11-22T01:03:33;13.83;;;11.33;;
18286;SDS011;9269;50.838;12.094;2022-11-22T01:06:03;14.73;;;11.40;;
18286;SDS011;9269;50.838;12.094;2022-11-22T01:08:32;17.57;;;12.10;;
18286;SDS011;9269;50.838;12.094;2022-11-22T01:11:02;13.03;;;10.63;;
18286;SDS011;9269;50.838;12.094;2022-11-22T01:13:31;14.23;;;11.67;;
18286;SDS011;9269;50.838;12.094;2022-11-22T01:16:00;14.17;;;11.00;;
18286;SDS011;9269;50.838;12.094;2022-11-22T01:18:31;13.50;;;10.20;;
18286;SDS011;9269;50.838;12.094;2022-11-22T01:21:00;12.23;;;10.20;;
18286;SDS011;9269;50.838;12.094;2022-11-22T01:23:30;12.93;;;10.50;;
18286;SDS011;9269;50.838;12.094;2022-11-22T01:25:59;12.07;;;10.17;;
18286;SDS011;9269;50.838;12.094;2022-11-22T01:28:29;15.60;;;11.43;;
18286;SDS011;9269;50.838;12.094;2022-11-22T01:30:57;16.57;;;12.83;;
18286;SDS011;9269;50.838;12.094;2022-11-22T01:33:26;16.60;;;12.60;;
18286;SDS011;9269;50.838;12.094;2022-11-22T01:35:55;13.30;;;11.13;;
18286;SDS011;9269;50.838;12.094;2022-11-22T01:38:25;14.20;;;11.63;;
18286;SDS011;9269;50.838;12.094;2022-11-22T01:40:55;13.83;;;11.13;;
18286;SDS011;9269;50.838;12.094;2022-11-22T01:43:25;13.67;;;11.33;;
18286;SDS011;9269;50.838;12.094;2022-11-22T01:45:55;14.60;;;10.97;;
18286;SDS011;9269;50.838;12.094;2022-11-22T01:48:33;12.83;;;9.80;;
18286;SDS011;9269;50.838;12.094;2022-11-22T01:51:08;13.33;;;10.43;;
18286;SDS011;9269;50.838;12.094;2022-11-22T01:53:44;13.97;;;10.67;;
18286;SDS011;9269;50.838;12.094;2022-11-22T01:56:15;12.20;;;9.73;;
18286;SDS011;9269;50.838;12.094;2022-11-22T01:58:46;15.07;;;11.00;;
18286;SDS011;9269;50.838;12.094;2022-11-22T02:01:19;13.10;;;10.03;;
18286;SDS011;9269;50.838;12.094;2022-11-22T02:03:48;13.07;;;10.00;;
18286;SDS011;9269;50.838;12.094;2022-11-22T02:06:19;13.87;;;10.73;;
18286;SDS011;9269;50.838;12.094;2022-11-22T02:08:50;16.03;;;11.27;;
18286;SDS011;9269;50.838;12.094;2022-11-22T02:11:25;13.30;;;10.80;;
18286;SDS011;9269;50.838;12.094;2022-11-22T02:14:00;12.83;;;10.10;;
18286;SDS011;9269;50.838;12.094;2022-11-22T02:16:30;13.90;;;10.90;;
18286;SDS011;9269;50.838;12.094;2022-11-22T02:19:01;13.37;;;11.37;;
18286;SDS011;9269;50.838;12.094;2022-11-22T02:21:31;18.00;;;12.00;;
18286;SDS011;9269;50.838;12.094;2022-11-22T02:24:00;16.40;;;11.80;;
18286;SDS011;9269;50.838;12.094;2022-11-22T02:26:36;14.63;;;10.90;;
18286;SDS011;9269;50.838;12.094;2022-11-22T02:29:05;15.07;;;11.90;;
18286;SDS011;9269;50.838;12.094;2022-11-22T02:31:37;14.47;;;11.97;;
18286;SDS011;9269;50.838;12.094;2022-11-22T02:34:08;13.40;;;10.90;;
18286;SDS011;9269;50.838;12.094;2022-11-22T02:36:37;16.47;;;12.03;;
18286;SDS011;9269;50.838;12.094;2022-11-22T02:39:10;13.60;;;10.53;;
18286;SDS011;9269;50.838;12.094;2022-11-22T02:41:42;15.27;;;10.63;;
18286;SDS011;9269;50.838;12.094;2022-11-22T02:44:11;13.80;;;10.33;;
18286;SDS011;9269;50.838;12.094;2022-11-22T02:46:47;12.10;;;9.93;;
18286;SDS011;9269;50.838;12.094;2022-11-22T02:49:17;11.87;;;10.33;;
18286;SDS011;9269;50.838;12.094;2022-11-22T02:51:47;12.30;;;10.20;;
18286;SDS011;9269;50.838;12.094;2022-11-22T02:54:16;13.53;;;10.80;;
18286;SDS011;9269;50.838;12.094;2022-11-22T02:56:46;12.23;;;9.23;;
18286;SDS011;9269;50.838;12.094;2022-11-22T02:59:14;12.30;;;10.03;;
18286;SDS011;9269;50.838;12.094;2022-11-22T03:01:43;12.63;;;9.73;;
18286;SDS011;9269;50.838;12.094;2022-11-22T03:04:13;12.40;;;9.27;;
18286;SDS011;9269;50.838;12.094;2022-11-22T03:06:51;12.37;;;9.67;;
18286;SDS011;9269;50.838;12.094;2022-11-22T03:09:21;11.67;;;9.43;;
18286;SDS011;9269;50.838;12.094;2022-11-22T03:11:51;12.80;;;9.50;;
18286;SDS011;9269;50.838;12.094;2022-11-22T03:14:20;14.87;;;9.77;;
18286;SDS011;9269;50.838;12.094;2022-11-22T03:16:50;11.87;;;9.33;;
18286;SDS011;9269;50.838;12.094;2022-11-22T03:19:18;12.40;;;9.20;;
18286;SDS011;9269;50.838;12.094;2022-11-22T03:21:47;12.50;;;9.17;;
18286;SDS011;9269;50.838;12.094;2022-11-22T03:24:16;10.73;;;9.00;;
18286;SDS011;9269;50.838;12.094;2022-11-22T03:26:46;11.67;;;8.97;;
18286;SDS011;9269;50.838;12.094;2022-11-22T03:29:17;12.23;;;9.67;;
18286;SDS011;9269;50.838;12.094;2022-11-22T03:31:46;10.93;;;9.10;;
18286;SDS011;9269;50.838;12.094;2022-11-22T03:34:14;13.73;;;10.10;;
18286;SDS011;9269;50.838;12.094;2022-11-22T03:36:43;13.17;;;9.53;;
18286;SDS011;9269;50.838;12.094;2022-11-22T03:39:11;13.63;;;9.90;;
18286;SDS011;9269;50.838;12.094;2022-11-22T03:41:40;13.07;;;10.57;;
18286;SDS011;9269;50.838;12.094;2022-11-22T03:44:08;11.30;;;9.53;;
18286;SDS011;9269;50.838;12.094;2022-11-22T03:46:38;14.33;;;10.77;;
18286;SDS011;9269;50.838;12.094;2022-11-22T03:49:07;12.90;;;10.07;;
18286;SDS011;9269;50.838;12.094;2022-11-22T03:51:37;13.00;;;10.77;;
18286;SDS011;9269;50.838;12.094;2022-11-22T03:54:06;13.47;;;11.03;;
18286;SDS011;9269;50.838;12.094;2022-11-22T03:56:35;13.53;;;10.17;;
18286;SDS011;9269;50.838;12.094;2022-11-22T03:59:03;12.73;;;10.87;;
18286;SDS011;9269;50.838;12.094;2022-11-22T04:01:34;13.67;;;9.67;;
18286;SDS011;9269;50.838;12.094;2022-11-22T04:04:05;12.50;;;10.30;;
18286;SDS011;9269;50.838;12.094;2022-11-22T04:06:34;14.10;;;10.10;;
18286;SDS011;9269;50.838;12.094;2022-11-22T04:09:02;12.63;;;9.77;;
18286;SDS011;9269;50.838;12.094;2022-11-22T04:11:32;12.50;;;9.67;;
18286;SDS011;9269;50.838;12.094;2022-11-22T04:14:00;15.13;;;11.10;;
18286;SDS011;9269;50.838;12.094;2022-11-22T04:16:47;11.90;;;9.83;;
18286;SDS011;9269;50.838;12.094;2022-11-22T04:19:16;13.03;;;10.53;;
18286;SDS011;9269;50.838;12.094;2022-11-22T04:21:45;12.87;;;10.63;;
18286;SDS011;9269;50.838;12.094;2022-11-22T04:24:12;14.93;;;11.03;;
18286;SDS011;9269;50.838;12.094;2022-11-22T04:26:58;12.30;;;10.47;;
18286;SDS011;9269;50.838;12.094;2022-11-22T04:29:28;15.87;;;11.00;;
18286;SDS011;9269;50.838;12.094;2022-11-22T04:31:57;12.67;;;10.33;;
18286;SDS011;9269;50.838;12.094;2022-11-22T04:34:45;12.50;;;10.37;;
18286;SDS011;9269;50.838;12.094;2022-11-22T04:37:14;17.13;;;11.37;;
18286;SDS011;9269;50.838;12.094;2022-11-22T04:39:42;12.23;;;10.30;;
18286;SDS011;9269;50.838;12.094;2022-11-22T04:42:12;14.43;;;10.57;;
18286;SDS011;9269;50.838;12.094;2022-11-22T04:44:58;14.67;;;11.80;;
18286;SDS011;9269;50.838;12.094;2022-11-22T04:47:27;12.80;;;9.93;;
18286;SDS011;9269;50.838;12.094;2022-11-22T04:50:17;12.80;;;11.10;;
18286;SDS011;9269;50.838;12.094;2022-11-22T04:53:03;14.03;;;11.50;;
18286;SDS011;9269;50.838;12.094;2022-11-22T04:55:32;15.30;;;10.87;;
18286;SDS011;9269;50.838;12.094;2022-11-22T04:58:00;16.07;;;11.37;;
18286;SDS011;9269;50.838;12.094;2022-11-22T05:00:29;15.03;;;11.10;;
18286;SDS011;9269;50.838;12.094;2022-11-22T05:02:58;15.70;;;11.63;;
18286;SDS011;9269;50.838;12.094;2022-11-22T05:05:29;14.73;;;11.00;;
18286;SDS011;9269;50.838;12.094;2022-11-22T05:07:57;14.20;;;10.87;;
18286;SDS011;9269;50.838;12.094;2022-11-22T05:10:26;13.20;;;10.23;;
18286;SDS011;9269;50.838;12.094;2022-11-22T05:13:15;15.13;;;10.37;;
18286;SDS011;9269;50.838;12.094;2022-11-22T05:15:44;14.90;;;11.33;;
18286;SDS011;9269;50.838;12.094;2022-11-22T05:18:13;14.70;;;11.60;;
18286;SDS011;9269;50.838;12.094;2022-11-22T05:20:43;13.67;;;10.73;;
18286;SDS011;9269;50.838;12.094;2022-11-22T05:23:12;12.13;;;10.37;;
18286;SDS011;9269;50.838;12.094;2022-11-22T05:25:58;13.60;;;10.63;;
18286;SDS011;9269;50.838;12.094;2022-11-22T05:28:27;16.00;;;11.93;;
18286;SDS011;9269;50.838;12.094;2022-11-22T05:30:56;14.53;;;11.83;;
18286;SDS011;9269;50.838;12.094;2022-11-22T05:33:25;13.63;;;11.20;;
18286;SDS011;9269;50.838;12.094;2022-11-22T05:36:09;13.83;;;11.17;;
18286;SDS011;9269;50.838;12.094;2022-11-22T05:38:38;13.60;;;10.03;;
18286;SDS011;9269;50.838;12.094;2022-11-22T05:41:07;13.43;;;11.03;;
18286;SDS011;9269;50.838;12.094;2022-11-22T05:43:38;15.13;;;11.37;;
18286;SDS011;9269;50.838;12.094;2022-11-22T05:46:07;12.70;;;10.73;;
18286;SDS011;9269;50.838;12.094;2022-11-22T05:48:38;15.87;;;11.83;;
18286;SDS011;9269;50.838;12.094;2022-11-22T05:51:10;13.00;;;10.63;;
18286;SDS011;9269;50.838;12.094;2022-11-22T05:53:39;12.53;;;10.97;;
18286;SDS011;9269;50.838;12.094;2022-11-22T05:56:10;15.13;;;10.80;;
18286;SDS011;9269;50.838;12.094;2022-11-22T05:58:40;12.77;;;10.10;;
18286;SDS011;9269;50.838;12.094;2022-11-22T06:01:10;12.90;;;10.67;;
18286;SDS011;9269;50.838;12.094;2022-11-22T06:03:40;13.83;;;10.63;;
18286;SDS011;9269;50.838;12.094;2022-11-22T06:06:10;14.50;;;10.77;;
18286;SDS011;9269;50.838;12.094;2022-11-22T06:08:40;14.70;;;10.83;;
18286;SDS011;9269;50.838;12.094;2022-11-22T06:11:13;12.93;;;10.67;;
18286;SDS011;9269;50.838;12.094;2022-11-22T06:13:43;14.57;;;11.03;;
18286;SDS011;9269;50.838;12.094;2022-11-22T06:16:13;12.10;;;10.23;;
18286;SDS011;9269;50.838;12.094;2022-11-22T06:18:41;11.97;;;9.77;;
18286;SDS011;9269;50.838;12.094;2022-11-22T06:21:12;13.57;;;9.77;;
18286;SDS011;9269;50.838;12.094;2022-11-22T06:23:42;12.97;;;9.00;;
18286;SDS011;9269;50.838;12.094;2022-11-22T06:26:11;11.13;;;8.47;;
18286;SDS011;9269;50.838;12.094;2022-11-22T06:28:42;11.50;;;8.60;;
18286;SDS011;9269;50.838;12.094;2022-11-22T06:31:12;13.43;;;9.20;;
18286;SDS011;9269;50.838;12.094;2022-11-22T06:33:42;9.83;;;7.60;;
18286;SDS011;9269;50.838;12.094;2022-11-22T06:36:13;10.37;;;7.67;;
18286;SDS011;9269;50.838;12.094;2022-11-22T06:38:45;10.57;;;7.77;;
18286;SDS011;9269;50.838;12.094;2022-11-22T06:41:14;12.10;;;8.77;;
18286;SDS011;9269;50.838;12.094;2022-11-22T06:43:45;10.57;;;8.40;;
18286;SDS011;9269;50.838;12.094;2022-11-22T06:46:16;11.50;;;8.00;;
18286;SDS011;9269;50.838;12.094;2022-11-22T06:48:45;10.10;;;7.73;;
18286;SDS011;9269;50.838;12.094;2022-11-22T06:51:16;11.40;;;7.63;;
18286;SDS011;9269;50.838;12.094;2022-11-22T06:53:46;9.30;;;7.23;;
18286;SDS011;9269;50.838;12.094;2022-11-22T06:56:16;11.87;;;7.57;;
18286;SDS011;9269;50.838;12.094;2022-11-22T06:58:50;9.83;;;7.43;;
18286;SDS011;9269;50.838;12.094;2022-11-22T07:01:21;9.10;;;7.03;;
18286;SDS011;9269;50.838;12.094;2022-11-22T07:03:52;9.03;;;7.00;;
18286;SDS011;9269;50.838;12.094;2022-11-22T07:06:26;10.60;;;7.47;;
18286;SDS011;9269;50.838;12.094;2022-11-22T07:08:56;12.20;;;7.80;;
18286;SDS011;9269;50.838;12.094;2022-11-22T07:11:26;10.80;;;8.43;;
18286;SDS011;9269;50.838;12.094;2022-11-22T07:13:59;11.23;;;8.03;;
18286;SDS011;9269;50.838;12.094;2022-11-22T07:16:35;11.63;;;8.87;;
18286;SDS011;9269;50.838;12.094;2022-11-22T07:19:06;10.87;;;8.60;;
18286;SDS011;9269;50.838;12.094;2022-11-22T07:21:36;11.47;;;9.03;;
18286;SDS011;9269;50.838;12.094;2022-11-22T07:24:05;13.70;;;10.03;;
18286;SDS011;9269;50.838;12.094;2022-11-22T07:26:34;11.50;;;8.90;;
18286;SDS011;9269;50.838;12.094;2022-11-22T07:29:03;11.90;;;9.23;;
18286;SDS011;9269;50.838;12.094;2022-11-22T07:31:32;13.20;;;9.00;;
18286;SDS011;9269;50.838;12.094;2022-11-22T07:34:00;11.17;;;9.67;;
18286;SDS011;9269;50.838;12.094;2022-11-22T07:36:29;12.03;;;9.00;;
18286;SDS011;9269;50.838;12.094;2022-11-22T07:38:59;13.90;;;9.43;;
18286;SDS011;9269;50.838;12.094;2022-11-22T07:41:30;11.67;;;9.30;;
18286;SDS011;9269;50.838;12.094;2022-11-22T07:43:58;13.10;;;9.00;;
18286;SDS011;9269;50.838;12.094;2022-11-22T07:46:27;14.40;;;9.43;;
18286;SDS011;9269;50.838;12.094;2022-11-22T07:48:57;12.40;;;9.37;;
18286;SDS011;9269;50.838;12.094;2022-11-22T07:51:27;13.73;;;9.20;;
18286;SDS011;9269;50.838;12.094;2022-11-22T07:53:56;13.17;;;9.20;;
18286;SDS011;9269;50.838;12.094;2022-11-22T07:56:27;13.13;;;8.87;;
18286;SDS011;9269;50.838;12.094;2022-11-22T07:58:56;12.40;;;9.83;;
18286;SDS011;9269;50.838;12.094;2022-11-22T08:01:24;12.97;;;9.03;;
18286;SDS011;9269;50.838;12.094;2022-11-22T08:03:53;11.63;;;8.90;;
18286;SDS011;9269;50.838;12.094;2022-11-22T08:06:21;13.07;;;9.33;;
18286;SDS011;9269;50.838;12.094;2022-11-22T08:08:50;12.20;;;8.80;;
18286;SDS011;9269;50.838;12.094;2022-11-22T08:11:29;11.60;;;8.80;;
18286;SDS011;9269;50.838;12.094;2022-11-22T08:13:58;11.73;;;9.17;;
18286;SDS011;9269;50.838;12.094;2022-11-22T08:16:28;11.40;;;8.27;;
18286;SDS011;9269;50.838;12.094;2022-11-22T08:18:56;13.30;;;8.77;;
18286;SDS011;9269;50.838;12.094;2022-11-22T08:21:25;11.50;;;8.13;;
18286;SDS011;9269;50.838;12.094;2022-11-22T08:23:56;13.87;;;8.73;;
18286;SDS011;9269;50.838;12.094;2022-11-22T08:26:25;9.70;;;8.03;;
18286;SDS011;9269;50.838;12.094;2022-11-22T08:28:55;11.70;;;8.57;;
18286;SDS011;9269;50.838;12.094;2022-11-22T08:31:25;9.90;;;8.20;;
18286;SDS011;9269;50.838;12.094;2022-11-22T08:33:54;11.07;;;8.23;;
18286;SDS011;9269;50.838;12.094;2022-11-22T08:36:22;9.23;;;7.87;;
18286;SDS011;9269;50.838;12.094;2022-11-22T08:38:51;9.83;;;7.97;;
18286;SDS011;9269;50.838;12.094;2022-11-22T08:41:20;10.63;;;8.07;;
18286;SDS011;9269;50.838;12.094;2022-11-22T08:43:50;13.23;;;7.93;;
18286;SDS011;9269;50.838;12.094;2022-11-22T08:46:20;9.43;;;7.23;;
18286;SDS011;9269;50.838;12.094;2022-11-22T08:48:50;9.23;;;8.10;;
18286;SDS011;9269;50.838;12.094;2022-11-22T08:51:19;10.40;;;7.97;;
18286;SDS011;9269;50.838;12.094;2022-11-22T08:53:48;10.40;;;8.37;;
18286;SDS011;9269;50.838;12.094;2022-11-22T08:56:17;13.37;;;8.60;;
18286;SDS011;9269;50.838;12.094;2022-11-22T08:58:45;10.47;;;8.53;;
18286;SDS011;9269;50.838;12.094;2022-11-22T09:01:14;11.27;;;7.83;;
18286;SDS011;9269;50.838;12.094;2022-11-22T09:03:45;14.77;;;9.33;;
18286;SDS011;9269;50.838;12.094;2022-11-22T09:06:17;10.70;;;8.17;;
18286;SDS011;9269;50.838;12.094;2022-11-22T09:09:07;12.30;;;8.50;;
18286;SDS011;9269;50.838;12.094;2022-11-22T09:11:55;17.00;;;10.70;;
18286;SDS011;9269;50.838;12.094;2022-11-22T09:14:23;14.50;;;9.77;;
18286;SDS011;9269;50.838;12.094;2022-11-22T09:16:52;13.40;;;9.73;;
18286;SDS011;9269;50.838;12.094;2022-11-22T09:19:22;14.57;;;9.90;;
18286;SDS011;9269;50.838;12.094;2022-11-22T09:21:50;11.53;;;9.37;;
18286;SDS011;9269;50.838;12.094;2022-11-22T09:24:19;13.63;;;9.70;;
18286;SDS011;9269;50.838;12.094;2022-11-22T09:26:48;12.50;;;9.30;;
18286;SDS011;9269;50.838;12.094;2022-11-22T09:29:16;12.67;;;9.93;;
18286;SDS011;9269;50.838;12.094;2022-11-22T09:31:45;16.20;;;10.83;;
18286;SDS011;9269;50.838;12.094;2022-11-22T09:34:13;14.03;;;10.13;;
18286;SDS011;9269;50.838;12.094;2022-11-22T09:36:43;14.30;;;10.57;;
18286;SDS011;9269;50.838;12.094;2022-11-22T09:39:11;13.83;;;10.13;;
18286;SDS011;9269;50.838;12.094;2022-11-22T09:41:47;13.80;;;10.23;;
18286;SDS011;9269;50.838;12.094;2022-11-22T09:44:36;14.60;;;9.53;;
18286;SDS011;9269;50.838;12.094;2022-11-22T09:47:15;12.07;;;9.33;;
18286;SDS011;9269;50.838;12.094;2022-11-22T09:49:52;11.30;;;9.00;;
18286;SDS011;9269;50.838;12.094;2022-11-22T09:52:32;13.70;;;10.10;;
18286;SDS011;9269;50.838;12.094;2022-11-22T09:55:07;12.37;;;9.23;;
18286;SDS011;9269;50.838;12.094;2022-11-22T09:57:50;13.83;;;9.03;;
18286;SDS011;9269;50.838;12.094;2022-11-22T10:00:27;11.73;;;8.80;;
18286;SDS011;9269;50.838;12.094;2022-11-22T10:03:00;10.43;;;8.73;;
18286;SDS011;9269;50.838;12.094;2022-11-22T10:05:38;14.60;;;10.40;;
18286;SDS011;9269;50.838;12.094;2022-11-22T10:08:18;13.77;;;9.43;;
18286;SDS011;9269;50.838;12.094;2022-11-22T10:10:53;11.80;;;9.30;;
18286;SDS011;9269;50.838;12.094;2022-11-22T10:13:27;11.87;;;9.17;;
18286;SDS011;9269;50.838;12.094;2022-11-22T10:16:00;11.63;;;9.20;;
18286;SDS011;9269;50.838;12.094;2022-11-22T10:18:37;12.77;;;9.10;;
18286;SDS011;9269;50.838;12.094;2022-11-22T10:21:09;11.57;;;9.47;;
18286;SDS011;9269;50.838;12.094;2022-11-22T10:23:41;12.53;;;9.00;;
18286;SDS011;9269;50.838;12.094;2022-11-22T10:26:13;12.77;;;9.83;;
18286;SDS011;9269;50.838;12.094;2022-11-22T10:28:51;12.20;;;9.37;;
18286;SDS011;9269;50.838;12.094;2022-11-22T10:31:31;14.03;;;10.17;;
18286;SDS011;9269;50.838;12.094;2022-11-22T10:34:08;13.30;;;9.60;;
18286;SDS011;9269;50.838;12.094;2022-11-22T10:36:45;16.00;;;10.60;;
18286;SDS011;9269;50.838;12.094;2022-11-22T10:45:20;14.37;;;10.53;;
18286;SDS011;9269;50.838;12.094;2022-11-22T10:47:55;13.00;;;10.53;;
18286;SDS011;9269;50.838;12.094;2022-11-22T10:50:33;12.60;;;10.30;;
18286;SDS011;9269;50.838;12.094;2022-11-22T10:53:15;14.37;;;10.13;;
18286;SDS011;9269;50.838;12.094;2022-11-22T10:55:55;11.87;;;9.50;;
18286;SDS011;9269;50.838;12.094;2022-11-22T10:58:30;14.93;;;10.40;;
18286;SDS011;9269;50.838;12.094;2022-11-22T11:01:09;12.87;;;9.53;;
18286;SDS011;9269;50.838;12.094;2022-11-22T11:03:44;11.20;;;9.40;;
18286;SDS011;9269;50.838;12.094;2022-11-22T11:06:16;11.97;;;9.30;;
18286;SDS011;9269;50.838;12.094;2022-11-22T11:09:11;14.27;;;9.87;;
18286;SDS011;9269;50.838;12.094;2022-11-22T11:12:11;14.07;;;9.53;;
18286;SDS011;9269;50.838;12.094;2022-11-22T11:14:45;13.60;;;11.00;;
18286;SDS011;9269;50.838;12.094;2022-11-22T11:17:19;12.70;;;10.27;;
18286;SDS011;9269;50.838;12.094;2022-11-22T11:19:55;14.90;;;9.40;;
18286;SDS011;9269;50.838;12.094;2022-11-22T11:22:29;13.63;;;9.83;;
18286;SDS011;9269;50.838;12.094;2022-11-22T11:25:25;13.70;;;10.07;;
18286;SDS011;9269;50.838;12.094;2022-11-22T11:27:58;12.03;;;9.20;;
18286;SDS011;9269;50.838;12.094;2022-11-22T11:30:36;13.23;;;9.60;;
18286;SDS011;9269;50.838;12.094;2022-11-22T11:33:15;14.23;;;9.87;;
18286;SDS011;9269;50.838;12.094;2022-11-22T11:35:46;16.17;;;10.10;;
18286;SDS011;9269;50.838;12.094;2022-11-22T11:38:29;12.10;;;9.70;;
18286;SDS011;9269;50.838;12.094;2022-11-22T11:41:14;13.93;;;11.13;;
18286;SDS011;9269;50.838;12.094;2022-11-22T11:43:57;12.17;;;9.43;;
18286;SDS011;9269;50.838;12.094;2022-11-22T11:46:31;13.03;;;9.70;;
18286;SDS011;9269;50.838;12.094;2022-11-22T11:49:12;9.20;;;8.00;;
18286;SDS011;9269;50.838;12.094;2022-11-22T11:51:42;10.67;;;8.13;;
18286;SDS011;9269;50.838;12.094;2022-11-22T11:54:13;9.23;;;8.23;;
18286;SDS011;9269;50.838;12.094;2022-11-22T11:56:45;8.53;;;7.63;;
18286;SDS011;9269;50.838;12.094;2022-11-22T11:59:16;8.93;;;7.70;;
18286;SDS011;9269;50.838;12.094;2022-11-22T12:01:52;10.67;;;7.70;;
18286;SDS011;9269;50.838;12.094;2022-11-22T12:04:25;9.90;;;8.30;;
18286;SDS011;9269;50.838;12.094;2022-11-22T12:06:57;10.50;;;8.03;;
18286;SDS011;9269;50.838;12.094;2022-11-22T12:09:33;9.00;;;7.70;;
18286;SDS011;9269;50.838;12.094;2022-11-22T12:12:10;10.70;;;8.50;;
18286;SDS011;9269;50.838;12.094;2022-11-22T12:14:50;10.67;;;8.90;;
18286;SDS011;9269;50.838;12.094;2022-11-22T12:17:40;14.17;;;9.53;;
18286;SDS011;9269;50.838;12.094;2022-11-22T12:20:18;12.00;;;9.53;;
18286;SDS011;9269;50.838;12.094;2022-11-22T12:22:56;12.87;;;9.23;;
18286;SDS011;9269;50.838;12.094;2022-11-22T12:25:31;13.07;;;10.03;;
18286;SDS011;9269;50.838;12.094;2022-11-22T12:28:09;12.27;;;9.77;;
18286;SDS011;9269;50.838;12.094;2022-11-22T12:30:43;16.03;;;9.93;;
18286;SDS011;9269;50.838;12.094;2022-11-22T12:33:16;12.57;;;10.77;;
18286;SDS011;9269;50.838;12.094;2022-11-22T12:35:49;13.03;;;9.63;;
18286;SDS011;9269;50.838;12.094;2022-11-22T12:38:24;12.77;;;9.53;;
18286;SDS011;9269;50.838;12.094;2022-11-22T12:40:55;11.63;;;9.57;;
18286;SDS011;9269;50.838;12.094;2022-11-22T12:43:27;12.10;;;9.40;;
18286;SDS011;9269;50.838;12.094;2022-11-22T12:46:03;12.77;;;8.83;;
18286;SDS011;9269;50.838;12.094;2022-11-22T12:48:38;12.33;;;9.07;;
18286;SDS011;9269;50.838;12.094;2022-11-22T12:51:16;11.90;;;8.97;;
18286;SDS011;9269;50.838;12.094;2022-11-22T12:53:51;13.80;;;9.50;;
18286;SDS011;9269;50.838;12.094;2022-11-22T12:56:28;12.50;;;9.03;;
18286;SDS011;9269;50.838;12.094;2022-11-22T12:59:00;11.70;;;8.57;;
18286;SDS011;9269;50.838;12.094;2022-11-22T13:01:38;11.83;;;8.70;;
18286;SDS011;9269;50.838;12.094;2022-11-22T13:04:17;10.27;;;8.00;;
18286;SDS011;9269;50.838;12.094;2022-11-22T13:06:52;11.40;;;8.40;;
18286;SDS011;9269;50.838;12.094;2022-11-22T13:09:23;17.57;;;8.33;;
18286;SDS011;9269;50.838;12.094;2022-11-22T13:11:57;11.20;;;8.53;;
18286;SDS011;9269;50.838;12.094;2022-11-22T13:14:31;9.90;;;8.80;;
18286;SDS011;9269;50.838;12.094;2022-11-22T13:17:06;12.50;;;8.63;;
18286;SDS011;9269;50.838;12.094;2022-11-22T13:19:37;11.00;;;8.43;;
18286;SDS011;9269;50.838;12.094;2022-11-22T13:22:14;9.87;;;7.53;;
18286;SDS011;9269;50.838;12.094;2022-11-22T13:24:52;11.07;;;7.87;;
18286;SDS011;9269;50.838;12.094;2022-11-22T13:27:37;11.70;;;8.57;;
18286;SDS011;9269;50.838;12.094;2022-11-22T13:30:15;14.37;;;8.77;;
18286;SDS011;9269;50.838;12.094;2022-11-22T13:32:48;10.43;;;8.37;;
18286;SDS011;9269;50.838;12.094;2022-11-22T13:35:24;11.07;;;8.23;;
18286;SDS011;9269;50.838;12.094;2022-11-22T13:37:57;12.57;;;7.80;;
18286;SDS011;9269;50.838;12.094;2022-11-22T13:40:29;10.43;;;8.00;;
18286;SDS011;9269;50.838;12.094;2022-11-22T13:49:36;12.27;;;8.27;;
18286;SDS011;9269;50.838;12.094;2022-11-22T13:52:27;11.13;;;8.10;;
18286;SDS011;9269;50.838;12.094;2022-11-22T13:55:24;11.00;;;7.93;;
18286;SDS011;9269;50.838;12.094;2022-11-22T13:57:56;9.20;;;7.57;;
18286;SDS011;9269;50.838;12.094;2022-11-22T14:04:34;10.03;;;7.40;;
18286;SDS011;9269;50.838;12.094;2022-11-22T14:12:59;14.73;;;9.73;;
18286;SDS011;9269;50.838;12.094;2022-11-22T14:15:43;13.57;;;9.90;;
18286;SDS011;9269;50.838;12.094;2022-11-22T14:18:21;11.83;;;10.33;;
18286;SDS011;9269;50.838;12.094;2022-11-22T14:21:20;13.87;;;10.20;;
18286;SDS011;9269;50.838;12.094;2022-11-22T14:24:08;13.87;;;10.30;;
18286;SDS011;9269;50.838;12.094;2022-11-22T14:26:48;13.40;;;9.60;;
18286;SDS011;9269;50.838;12.094;2022-11-22T14:29:30;12.17;;;9.03;;
18286;SDS011;9269;50.838;12.094;2022-11-22T14:32:27;11.10;;;8.67;;
18286;SDS011;9269;50.838;12.094;2022-11-22T14:35:18;13.23;;;9.63;;
18286;SDS011;9269;50.838;12.094;2022-11-22T14:38:00;12.20;;;10.10;;
18286;SDS011;9269;50.838;12.094;2022-11-22T14:40:33;12.73;;;10.23;;
18286;SDS011;9269;50.838;12.094;2022-11-22T14:43:18;13.07;;;9.20;;
18286;SDS011;9269;50.838;12.094;2022-11-22T14:46:03;15.10;;;10.37;;
18286;SDS011;9269;50.838;12.094;2022-11-22T14:48:59;11.60;;;9.63;;
18286;SDS011;9269;50.838;12.094;2022-11-22T14:51:32;12.80;;;10.40;;
18286;SDS011;9269;50.838;12.094;2022-11-22T14:54:03;16.40;;;10.63;;
18286;SDS011;9269;50.838;12.094;2022-11-22T14:56:40;15.57;;;11.00;;
18286;SDS011;9269;50.838;12.094;2022-11-22T14:59:14;13.77;;;10.90;;
18286;SDS011;9269;50.838;12.094;2022-11-22T15:02:15;13.33;;;11.47;;
18286;SDS011;9269;50.838;12.094;2022-11-22T15:04:58;17.67;;;11.47;;
18286;SDS011;9269;50.838;12.094;2022-11-22T15:07:59;16.60;;;10.40;;
18286;SDS011;9269;50.838;12.094;2022-11-22T15:11:12;14.90;;;11.07;;
18286;SDS011;9269;50.838;12.094;2022-11-22T15:16:49;19.43;;;12.63;;
18286;SDS011;9269;50.838;12.094;2022-11-22T15:19:41;15.73;;;11.70;;
18286;SDS011;9269;50.838;12.094;2022-11-22T15:22:31;16.97;;;12.43;;
18286;SDS011;9269;50.838;12.094;2022-11-22T15:25:19;17.53;;;11.63;;
18286;SDS011;9269;50.838;12.094;2022-11-22T15:28:11;17.63;;;12.00;;
18286;SDS011;9269;50.838;12.094;2022-11-22T15:31:07;16.33;;;11.40;;